createdAt,value
2019-06-10T00:00:44.518Z,17.43
2019-06-10T00:01:44.464Z,17.47
2019-06-10T00:02:44.304Z,17.46
2019-06-10T00:03:44.272Z,17.38
2019-06-10T00:04:44.152Z,17.40
2019-06-10T00:05:44.183Z,17.53
2019-06-10T00:06:44.009Z,17.58
2019-06-10T00:07:43.989Z,17.55
2019-06-10T00:08:43.854Z,17.55
2019-06-10T00:09:43.797Z,17.53
2019-06-10T00:10:43.704Z,17.54
2019-06-10T00:11:43.712Z,17.53
2019-06-10T00:12:43.558Z,17.57
2019-06-10T00:13:43.520Z,17.57
2019-06-10T00:14:43.408Z,17.54
2019-06-10T00:15:43.433Z,17.53
2019-06-10T00:16:43.263Z,17.46
2019-06-10T00:17:54.846Z,17.53
2019-06-10T00:18:45.783Z,17.58
2019-06-10T00:19:43.153Z,17.53
2019-06-10T00:20:42.969Z,17.54
2019-06-10T00:21:42.894Z,17.50
2019-06-10T00:22:42.821Z,17.40
2019-06-10T00:23:42.774Z,17.50
2019-06-10T00:24:42.663Z,17.43
2019-06-10T00:25:42.686Z,17.30
2019-06-10T00:26:42.520Z,17.38
2019-06-10T00:27:42.456Z,17.21
2019-06-10T00:28:42.376Z,17.21
2019-06-10T00:29:42.410Z,17.05
2019-06-10T00:30:42.222Z,16.95
2019-06-10T00:31:42.215Z,16.92
2019-06-10T00:32:42.078Z,16.92
2019-06-10T00:33:42.019Z,16.88
2019-06-10T00:34:42.107Z,16.78
2019-06-10T00:35:41.931Z,16.77
2019-06-10T00:36:41.778Z,16.71
2019-06-10T00:37:41.973Z,16.78
2019-06-10T00:38:41.629Z,16.84
2019-06-10T00:39:41.654Z,16.73
2019-06-10T00:40:42.033Z,16.81
2019-06-10T00:41:42.821Z,16.84
2019-06-10T00:42:41.751Z,16.89
2019-06-10T00:43:41.375Z,16.85
2019-06-10T00:44:41.669Z,16.88
2019-06-10T00:45:41.454Z,16.88
2019-06-10T00:46:41.031Z,16.85
2019-06-10T00:47:41.411Z,16.89
2019-06-10T00:48:41.139Z,16.88
2019-06-10T00:49:41.072Z,16.85
2019-06-10T00:50:41.406Z,16.85
2019-06-10T00:51:41.434Z,16.82
2019-06-10T00:52:42.190Z,16.81
2019-06-10T00:53:42.267Z,16.67
2019-06-10T00:54:41.762Z,16.70
2019-06-10T00:55:41.435Z,16.55
2019-06-10T00:56:41.341Z,16.53
2019-06-10T00:57:41.841Z,16.52
2019-06-10T00:58:40.857Z,16.42
2019-06-10T00:59:41.370Z,16.42
2019-06-10T01:00:41.226Z,16.41
2019-06-10T01:01:41.615Z,16.45
2019-06-10T01:02:41.100Z,16.40
2019-06-10T01:03:41.476Z,16.40
2019-06-10T01:04:40.762Z,16.29
2019-06-10T01:05:41.957Z,16.34
2019-06-10T01:06:42.169Z,16.40
2019-06-10T01:07:41.398Z,16.42
2019-06-10T01:08:40.544Z,16.40
2019-06-10T01:09:41.305Z,16.34
2019-06-10T01:10:43.246Z,16.45
2019-06-10T01:11:41.148Z,16.27
2019-06-10T01:12:40.682Z,16.18
2019-06-10T01:13:41.254Z,16.07
2019-06-10T01:14:41.018Z,16.06
2019-06-10T01:15:41.663Z,15.96
2019-06-10T01:16:41.023Z,15.94
2019-06-10T01:17:38.762Z,15.91
2019-06-10T01:18:41.433Z,15.97
2019-06-10T01:19:38.652Z,15.89
2019-06-10T01:20:41.015Z,15.85
2019-06-10T01:21:38.489Z,15.88
2019-06-10T01:22:38.338Z,15.89
2019-06-10T01:23:38.379Z,15.86
2019-06-10T01:24:38.188Z,15.94
2019-06-10T01:25:38.188Z,15.89
2019-06-10T01:26:38.035Z,15.97
2019-06-10T01:27:40.710Z,15.89
2019-06-10T01:28:37.890Z,15.82
2019-06-10T01:29:37.909Z,15.79
2019-06-10T01:30:37.739Z,15.79
2019-06-10T01:31:37.747Z,15.76
2019-06-10T01:32:37.594Z,15.78
2019-06-10T01:33:37.519Z,15.78
2019-06-10T01:34:37.436Z,15.88
2019-06-10T01:35:37.437Z,15.89
2019-06-10T01:36:37.287Z,15.86
2019-06-10T01:37:37.248Z,15.92
2019-06-10T01:38:37.134Z,15.88
2019-06-10T01:39:37.154Z,15.85
2019-06-10T01:40:36.987Z,15.82
2019-06-10T01:41:36.964Z,15.66
2019-06-10T01:42:36.838Z,15.59
2019-06-10T01:43:36.880Z,15.55
2019-06-10T01:44:36.687Z,15.57
2019-06-10T01:45:36.685Z,15.49
2019-06-10T01:46:36.539Z,15.55
2019-06-10T01:47:36.499Z,15.60
2019-06-10T01:48:44.175Z,15.59
2019-06-10T01:49:36.309Z,15.59
2019-06-10T01:50:36.314Z,15.53
2019-06-10T01:51:36.161Z,15.63
2019-06-10T01:52:36.119Z,15.67
2019-06-10T01:53:36.008Z,15.61
2019-06-10T01:54:36.034Z,15.70
2019-06-10T01:55:35.864Z,15.73
2019-06-10T01:56:35.843Z,15.76
2019-06-10T01:57:35.713Z,15.75
2019-06-10T01:58:35.753Z,15.70
2019-06-10T01:59:35.555Z,15.60
2019-06-10T02:00:35.561Z,15.75
2019-06-10T02:01:35.420Z,15.70
2019-06-10T02:02:35.424Z,15.79
2019-06-10T02:03:35.257Z,15.79
2019-06-10T02:04:35.281Z,15.79
2019-06-10T02:05:35.103Z,15.88
2019-06-10T02:06:35.090Z,15.92
2019-06-10T02:07:34.965Z,15.91
2019-06-10T02:08:35.005Z,15.89
2019-06-10T02:09:34.805Z,15.85
2019-06-10T02:10:34.807Z,15.86
2019-06-10T02:11:34.654Z,15.82
2019-06-10T02:12:34.616Z,15.82
2019-06-10T02:13:34.515Z,15.76
2019-06-10T02:14:34.534Z,15.82
2019-06-10T02:15:34.358Z,15.86
2019-06-10T02:16:34.337Z,15.79
2019-06-10T02:17:34.202Z,15.86
2019-06-10T02:18:34.147Z,15.78
2019-06-10T02:19:34.053Z,15.70
2019-06-10T02:20:33.981Z,15.61
2019-06-10T02:21:33.900Z,15.63
2019-06-10T02:22:33.865Z,15.57
2019-06-10T02:23:33.767Z,15.57
2019-06-10T02:24:33.780Z,15.55
2019-06-10T02:25:33.601Z,15.51
2019-06-10T02:26:33.588Z,15.57
2019-06-10T02:27:33.449Z,15.48
2019-06-10T02:28:33.399Z,15.52
2019-06-10T02:29:33.299Z,15.53
2019-06-10T02:30:41.483Z,15.49
2019-06-10T02:31:37.456Z,15.48
2019-06-10T02:32:37.792Z,15.43
2019-06-10T02:33:36.487Z,15.49
2019-06-10T02:34:37.413Z,15.52
2019-06-10T02:35:44.134Z,15.46
2019-06-10T02:36:36.777Z,15.34
2019-06-10T02:37:37.882Z,15.45
2019-06-10T02:38:38.148Z,15.39
2019-06-10T02:39:38.291Z,15.41
2019-06-10T02:40:36.434Z,15.42
2019-06-10T02:41:36.225Z,15.39
2019-06-10T02:42:35.530Z,15.38
2019-06-10T02:43:37.133Z,15.39
2019-06-10T02:44:37.137Z,15.39
2019-06-10T02:45:37.080Z,15.34
2019-06-10T02:46:35.984Z,15.28
2019-06-10T02:47:37.258Z,15.31
2019-06-10T02:48:35.106Z,15.33
2019-06-10T02:49:51.525Z,15.27
2019-06-10T02:50:36.186Z,15.34
2019-06-10T02:51:35.411Z,15.48
2019-06-10T02:52:34.227Z,15.46
2019-06-10T02:53:35.572Z,15.43
2019-06-10T02:54:35.626Z,15.51
2019-06-10T02:55:35.033Z,15.46
2019-06-10T02:56:36.134Z,15.46
2019-06-10T02:57:39.397Z,15.46
2019-06-10T02:58:38.481Z,15.53
2019-06-10T02:59:32.854Z,15.52
2019-06-10T03:00:39.641Z,15.51
2019-06-10T03:01:37.026Z,15.57
2019-06-10T03:02:35.897Z,15.46
2019-06-10T03:03:42.035Z,15.57
2019-06-10T03:04:33.963Z,15.52
2019-06-10T03:05:39.587Z,15.49
2019-06-10T03:06:36.227Z,15.60
2019-06-10T03:07:34.637Z,15.55
2019-06-10T03:08:32.813Z,15.55
2019-06-10T03:09:32.867Z,15.52
2019-06-10T03:10:36.137Z,15.42
2019-06-10T03:11:35.718Z,15.46
2019-06-10T03:12:30.118Z,15.46
2019-06-10T03:13:29.981Z,15.55
2019-06-10T03:14:29.934Z,15.51
2019-06-10T03:15:32.053Z,15.55
2019-06-10T03:16:29.845Z,15.52
2019-06-10T03:17:32.150Z,15.28
2019-06-10T03:18:29.646Z,15.30
2019-06-10T03:19:42.326Z,15.28
2019-06-10T03:20:29.441Z,15.24
2019-06-10T03:21:29.468Z,15.31
2019-06-10T03:22:29.289Z,15.28
2019-06-10T03:23:29.276Z,15.28
2019-06-10T03:24:29.153Z,15.28
2019-06-10T03:25:29.190Z,15.42
2019-06-10T03:26:28.990Z,15.45
2019-06-10T03:27:28.992Z,15.49
2019-06-10T03:28:28.842Z,15.49
2019-06-10T03:29:28.813Z,15.42
2019-06-10T03:30:44.196Z,15.53
2019-06-10T03:31:37.236Z,15.59
2019-06-10T03:32:35.325Z,15.55
2019-06-10T03:33:39.350Z,15.64
2019-06-10T03:34:36.365Z,15.48
2019-06-10T03:35:28.547Z,15.61
2019-06-10T03:36:28.243Z,15.59
2019-06-10T03:37:28.156Z,15.59
2019-06-10T03:38:28.337Z,15.63
2019-06-10T03:39:28.654Z,15.59
2019-06-10T03:40:27.961Z,15.67
2019-06-10T03:41:28.060Z,15.61
2019-06-10T03:42:28.287Z,15.59
2019-06-10T03:43:27.958Z,15.53
2019-06-10T03:44:28.432Z,15.55
2019-06-10T03:45:28.521Z,15.52
2019-06-10T03:46:28.473Z,15.49
2019-06-10T03:47:28.770Z,15.41
2019-06-10T03:48:28.441Z,15.55
2019-06-10T03:49:28.752Z,15.49
2019-06-10T03:50:28.354Z,15.51
2019-06-10T03:51:28.525Z,15.51
2019-06-10T03:52:28.396Z,15.46
2019-06-10T03:53:28.230Z,15.46
2019-06-10T03:54:29.305Z,15.55
2019-06-10T03:55:28.885Z,15.66
2019-06-10T03:56:28.121Z,15.46
2019-06-10T03:57:28.334Z,15.49
2019-06-10T03:58:28.923Z,15.48
2019-06-10T03:59:29.292Z,15.48
2019-06-10T04:00:27.614Z,15.48
2019-06-10T04:01:28.637Z,15.51
2019-06-10T04:02:27.217Z,15.46
2019-06-10T04:03:27.736Z,15.57
2019-06-10T04:04:27.119Z,15.60
2019-06-10T04:05:27.401Z,15.46
2019-06-10T04:06:27.336Z,15.55
2019-06-10T04:07:29.113Z,15.52
2019-06-10T04:08:26.566Z,15.52
2019-06-10T04:09:27.085Z,15.43
2019-06-10T04:10:28.197Z,15.45
2019-06-10T04:11:27.063Z,15.53
2019-06-10T04:12:27.402Z,15.52
2019-06-10T04:13:25.809Z,15.61
2019-06-10T04:14:26.749Z,15.55
2019-06-10T04:15:28.281Z,15.60
2019-06-10T04:16:25.787Z,15.57
2019-06-10T04:17:25.731Z,15.63
2019-06-10T04:18:27.848Z,15.60
2019-06-10T04:19:26.705Z,15.71
2019-06-10T04:20:27.694Z,15.71
2019-06-10T04:21:25.818Z,15.73
2019-06-10T04:22:26.491Z,15.78
2019-06-10T04:23:25.779Z,15.82
2019-06-10T04:24:25.755Z,15.78
2019-06-10T04:25:27.632Z,15.86
2019-06-10T04:26:25.737Z,15.91
2019-06-10T04:27:25.605Z,16.00
2019-06-10T04:28:26.183Z,15.96
2019-06-10T04:29:25.874Z,15.89
2019-06-10T04:30:26.060Z,16.00
2019-06-10T04:31:25.429Z,15.92
2019-06-10T04:32:25.711Z,15.97
2019-06-10T04:33:25.760Z,15.94
2019-06-10T04:34:27.284Z,16.04
2019-06-10T04:35:25.940Z,15.92
2019-06-10T04:36:26.199Z,15.99
2019-06-10T04:37:25.847Z,15.97
2019-06-10T04:38:25.935Z,15.96
2019-06-10T04:39:26.005Z,15.97
2019-06-10T04:40:25.062Z,16.00
2019-06-10T04:41:24.969Z,16.04
2019-06-10T04:42:25.674Z,15.94
2019-06-10T04:43:24.913Z,15.96
2019-06-10T04:44:24.840Z,15.97
2019-06-10T04:45:23.664Z,15.91
2019-06-10T04:46:24.946Z,15.94
2019-06-10T04:47:23.787Z,15.92
2019-06-10T04:48:23.581Z,15.88
2019-06-10T04:49:25.098Z,15.88
2019-06-10T04:50:33.112Z,15.92
2019-06-10T04:51:23.847Z,15.89
2019-06-10T04:52:23.635Z,15.89
2019-06-10T04:53:23.700Z,15.89
2019-06-10T04:54:23.781Z,15.99
2019-06-10T04:55:23.576Z,15.91
2019-06-10T04:56:24.110Z,15.91
2019-06-10T04:57:23.815Z,15.88
2019-06-10T04:58:24.478Z,15.96
2019-06-10T04:59:24.352Z,16.01
2019-06-10T05:00:24.119Z,16.06
2019-06-10T05:01:25.550Z,16.04
2019-06-10T05:02:25.009Z,16.07
2019-06-10T05:03:23.867Z,16.16
2019-06-10T05:04:23.962Z,16.14
2019-06-10T05:05:23.671Z,16.15
2019-06-10T05:06:23.781Z,16.25
2019-06-10T05:07:23.633Z,16.25
2019-06-10T05:08:23.521Z,16.26
2019-06-10T05:09:23.775Z,16.30
2019-06-10T05:10:23.680Z,16.37
2019-06-10T05:11:23.719Z,16.35
2019-06-10T05:12:23.588Z,16.38
2019-06-10T05:13:23.762Z,16.37
2019-06-10T05:14:23.433Z,16.38
2019-06-10T05:15:22.000Z,16.45
2019-06-10T05:16:26.683Z,16.35
2019-06-10T05:17:22.187Z,16.41
2019-06-10T05:18:23.951Z,16.52
2019-06-10T05:19:20.443Z,16.47
2019-06-10T05:20:22.312Z,16.45
2019-06-10T05:21:22.979Z,16.44
2019-06-10T05:22:22.711Z,16.44
2019-06-10T05:23:22.108Z,16.47
2019-06-10T05:24:20.183Z,16.57
2019-06-10T05:25:22.421Z,16.60
2019-06-10T05:26:22.849Z,16.56
2019-06-10T05:27:22.426Z,16.66
2019-06-10T05:28:20.000Z,16.60
2019-06-10T05:29:20.272Z,16.70
2019-06-10T05:30:20.073Z,16.73
2019-06-10T05:31:20.213Z,16.67
2019-06-10T05:32:20.780Z,16.65
2019-06-10T05:33:20.785Z,16.74
2019-06-10T05:34:20.400Z,16.80
2019-06-10T05:35:20.471Z,16.80
2019-06-10T05:36:20.563Z,16.85
2019-06-10T05:37:19.085Z,16.84
2019-06-10T05:38:19.046Z,16.96
2019-06-10T05:39:18.934Z,16.96
2019-06-10T05:40:18.959Z,16.99
2019-06-10T05:41:18.862Z,16.90
2019-06-10T05:42:18.872Z,16.95
2019-06-10T05:43:18.637Z,16.98
2019-06-10T05:44:18.756Z,16.95
2019-06-10T05:45:18.487Z,17.03
2019-06-10T05:46:18.485Z,16.99
2019-06-10T05:47:18.335Z,16.98
2019-06-10T05:48:18.295Z,16.93
2019-06-10T05:49:18.182Z,16.99
2019-06-10T05:50:18.209Z,17.03
2019-06-10T05:51:18.193Z,17.08
2019-06-10T05:52:18.081Z,17.08
2019-06-10T05:53:17.979Z,17.03
2019-06-10T05:54:18.088Z,17.14
2019-06-10T05:55:17.734Z,17.15
2019-06-10T05:56:17.737Z,17.26
2019-06-10T05:57:17.588Z,17.17
2019-06-10T05:58:17.716Z,17.21
2019-06-10T05:59:17.553Z,17.26
2019-06-10T06:00:17.461Z,17.18
2019-06-10T06:01:17.283Z,17.30
2019-06-10T06:02:17.266Z,17.28
2019-06-10T06:03:17.131Z,17.17
2019-06-10T06:04:17.076Z,17.23
2019-06-10T06:05:17.118Z,17.23
2019-06-10T06:06:16.996Z,17.18
2019-06-10T06:07:16.931Z,17.26
2019-06-10T06:08:16.799Z,17.28
2019-06-10T06:09:16.678Z,17.30
2019-06-10T06:10:16.706Z,17.38
2019-06-10T06:11:16.541Z,17.48
2019-06-10T06:12:16.528Z,17.40
2019-06-10T06:13:16.384Z,17.53
2019-06-10T06:14:16.431Z,17.48
2019-06-10T06:15:16.235Z,17.60
2019-06-10T06:16:16.168Z,17.53
2019-06-10T06:17:16.852Z,17.53
2019-06-10T06:18:16.045Z,17.46
2019-06-10T06:19:15.933Z,17.55
2019-06-10T06:20:15.960Z,17.53
2019-06-10T06:21:25.722Z,17.51
2019-06-10T06:22:15.714Z,17.51
2019-06-10T06:23:15.644Z,17.51
2019-06-10T06:24:15.589Z,17.63
2019-06-10T06:25:15.834Z,17.63
2019-06-10T06:26:16.812Z,17.58
2019-06-10T06:27:15.390Z,17.57
2019-06-10T06:28:16.283Z,17.64
2019-06-10T06:29:15.304Z,17.67
2019-06-10T06:30:18.531Z,17.66
2019-06-10T06:31:15.113Z,17.70
2019-06-10T06:32:14.965Z,17.73
2019-06-10T06:33:15.027Z,17.76
2019-06-10T06:34:14.818Z,17.82
2019-06-10T06:35:14.835Z,17.91
2019-06-10T06:36:14.663Z,17.88
2019-06-10T06:37:14.746Z,17.95
2019-06-10T06:38:14.515Z,17.91
2019-06-10T06:39:14.556Z,18.09
2019-06-10T06:40:14.375Z,18.09
2019-06-10T06:41:14.365Z,18.18
2019-06-10T06:42:14.217Z,18.07
2019-06-10T06:43:14.149Z,18.13
2019-06-10T06:44:14.291Z,18.19
2019-06-10T06:45:13.996Z,18.24
2019-06-10T06:46:14.100Z,18.18
2019-06-10T06:47:13.895Z,18.24
2019-06-10T06:48:13.799Z,18.25
2019-06-10T06:49:13.700Z,18.21
2019-06-10T06:50:13.815Z,18.32
2019-06-10T06:51:13.553Z,18.29
2019-06-10T06:52:13.551Z,18.34
2019-06-10T06:53:25.777Z,18.34
2019-06-10T06:54:13.686Z,18.37
2019-06-10T06:55:13.482Z,18.40
2019-06-10T06:56:13.516Z,18.44
2019-06-10T06:57:13.348Z,18.40
2019-06-10T06:58:13.147Z,18.47
2019-06-10T06:59:13.377Z,18.55
2019-06-10T07:00:35.349Z,18.55
2019-06-10T07:01:14.722Z,18.61
2019-06-10T07:02:12.991Z,18.58
2019-06-10T07:03:12.681Z,18.58
2019-06-10T07:04:12.996Z,18.59
2019-06-10T07:05:12.695Z,18.50
2019-06-10T07:06:13.186Z,18.50
2019-06-10T07:07:13.188Z,18.52
2019-06-10T07:08:13.186Z,18.55
2019-06-10T07:09:13.559Z,18.65
2019-06-10T07:10:12.387Z,18.62
2019-06-10T07:11:13.311Z,18.59
2019-06-10T07:12:13.061Z,18.68
2019-06-10T07:13:12.927Z,18.68
2019-06-10T07:14:13.401Z,18.71
2019-06-10T07:15:12.178Z,18.77
2019-06-10T07:16:13.144Z,18.80
2019-06-10T07:17:12.604Z,18.82
2019-06-10T07:18:13.038Z,18.86
2019-06-10T07:19:13.168Z,18.92
2019-06-10T07:20:12.621Z,18.95
2019-06-10T07:21:13.216Z,18.94
2019-06-10T07:22:13.646Z,18.95
2019-06-10T07:23:12.969Z,18.99
2019-06-10T07:24:12.670Z,19.05
2019-06-10T07:25:12.372Z,19.09
2019-06-10T07:26:12.706Z,19.05
2019-06-10T07:27:12.993Z,19.13
2019-06-10T07:28:12.558Z,19.02
2019-06-10T07:29:13.013Z,19.15
2019-06-10T07:30:12.530Z,19.15
2019-06-10T07:31:20.863Z,19.14
2019-06-10T07:32:12.419Z,19.17
2019-06-10T07:33:12.184Z,19.21
2019-06-10T07:34:12.857Z,19.13
2019-06-10T07:35:12.836Z,19.21
2019-06-10T07:36:12.953Z,19.17
2019-06-10T07:37:10.246Z,19.18
2019-06-10T07:38:12.163Z,19.21
2019-06-10T07:39:10.158Z,19.17
2019-06-10T07:40:09.916Z,19.18
2019-06-10T07:41:12.426Z,19.15
2019-06-10T07:42:09.767Z,19.24
2019-06-10T07:43:09.878Z,19.28
2019-06-10T07:44:09.617Z,19.20
2019-06-10T07:45:09.690Z,19.20
2019-06-10T07:46:09.475Z,19.23
2019-06-10T07:47:09.597Z,19.21
2019-06-10T07:48:09.323Z,19.25
2019-06-10T07:49:09.407Z,19.20
2019-06-10T07:50:09.179Z,19.27
2019-06-10T07:51:09.213Z,19.27
2019-06-10T07:52:15.759Z,19.28
2019-06-10T07:53:08.959Z,19.20
2019-06-10T07:54:08.948Z,19.31
2019-06-10T07:55:08.806Z,19.33
2019-06-10T07:56:08.757Z,19.33
2019-06-10T07:57:08.669Z,19.33
2019-06-10T07:58:08.668Z,19.28
2019-06-10T07:59:08.522Z,19.35
2019-06-10T08:00:08.563Z,19.32
2019-06-10T08:01:08.361Z,19.40
2019-06-10T08:02:08.475Z,19.40
2019-06-10T08:03:08.226Z,19.38
2019-06-10T08:04:08.197Z,19.45
2019-06-10T08:05:08.067Z,19.35
2019-06-10T08:06:08.196Z,19.42
2019-06-10T08:07:07.929Z,19.40
2019-06-10T08:08:08.009Z,19.36
2019-06-10T08:09:07.780Z,19.31
2019-06-10T08:10:07.813Z,19.32
2019-06-10T08:11:07.630Z,19.39
2019-06-10T08:12:07.724Z,19.35
2019-06-10T08:13:07.483Z,19.42
2019-06-10T08:14:07.443Z,19.45
2019-06-10T08:15:07.335Z,19.39
2019-06-10T08:16:07.440Z,19.36
2019-06-10T08:17:07.190Z,19.40
2019-06-10T08:18:07.250Z,19.46
2019-06-10T08:19:26.147Z,19.42
2019-06-10T08:20:09.872Z,19.50
2019-06-10T08:21:06.893Z,19.43
2019-06-10T08:22:06.977Z,19.50
2019-06-10T08:23:06.751Z,19.58
2019-06-10T08:24:06.785Z,19.45
2019-06-10T08:25:06.598Z,19.43
2019-06-10T08:26:06.689Z,19.40
2019-06-10T08:27:06.456Z,19.50
2019-06-10T08:28:06.518Z,19.48
2019-06-10T08:29:06.306Z,19.51
2019-06-10T08:30:18.662Z,19.48
2019-06-10T08:31:06.161Z,19.54
2019-06-10T08:32:06.230Z,19.45
2019-06-10T08:33:06.010Z,19.55
2019-06-10T08:34:06.139Z,19.54
2019-06-10T08:35:05.866Z,19.54
2019-06-10T08:36:05.944Z,19.57
2019-06-10T08:37:05.724Z,19.51
2019-06-10T08:38:05.854Z,19.53
2019-06-10T08:39:06.468Z,19.54
2019-06-10T08:40:05.669Z,19.55
2019-06-10T08:41:05.439Z,19.54
2019-06-10T08:42:05.657Z,19.55
2019-06-10T08:43:05.276Z,19.51
2019-06-10T08:44:05.387Z,19.57
2019-06-10T08:45:05.243Z,19.45
2019-06-10T08:46:05.279Z,19.54
2019-06-10T08:47:05.099Z,19.55
2019-06-10T08:48:05.287Z,19.48
2019-06-10T08:49:04.832Z,19.53
2019-06-10T08:50:04.917Z,19.48
2019-06-10T08:51:04.685Z,19.60
2019-06-10T08:52:05.064Z,19.60
2019-06-10T08:53:13.895Z,19.58
2019-06-10T08:54:04.466Z,19.69
2019-06-10T08:55:04.542Z,19.68
2019-06-10T08:56:04.324Z,19.63
2019-06-10T08:57:04.715Z,19.76
2019-06-10T08:58:04.558Z,19.73
2019-06-10T08:59:04.263Z,19.90
2019-06-10T09:00:10.980Z,19.90
2019-06-10T09:01:03.947Z,19.94
2019-06-10T09:02:03.976Z,19.97
2019-06-10T09:03:04.305Z,19.90
2019-06-10T09:04:03.887Z,19.91
2019-06-10T09:05:03.862Z,19.97
2019-06-10T09:06:03.815Z,19.98
2019-06-10T09:07:04.330Z,20.03
2019-06-10T09:08:03.607Z,19.95
2019-06-10T09:09:03.371Z,20.06
2019-06-10T09:10:04.440Z,20.00
2019-06-10T09:11:03.219Z,20.01
2019-06-10T09:12:03.729Z,20.08
2019-06-10T09:13:03.077Z,20.00
2019-06-10T09:14:04.159Z,20.06
2019-06-10T09:15:03.831Z,20.06
2019-06-10T09:16:18.249Z,20.13
2019-06-10T09:17:03.456Z,20.10
2019-06-10T09:18:02.860Z,20.10
2019-06-10T09:19:02.646Z,20.10
2019-06-10T09:20:04.715Z,20.09
2019-06-10T09:21:02.551Z,20.08
2019-06-10T09:22:03.430Z,20.20
2019-06-10T09:23:18.232Z,20.15
2019-06-10T09:24:03.959Z,20.30
2019-06-10T09:25:02.885Z,20.23
2019-06-10T09:26:03.581Z,20.30
2019-06-10T09:27:02.948Z,20.38
2019-06-10T09:28:02.452Z,20.30
2019-06-10T09:29:02.845Z,20.30
2019-06-10T09:30:02.991Z,20.38
2019-06-10T09:31:04.024Z,20.42
2019-06-10T09:32:02.129Z,20.35
2019-06-10T09:33:04.312Z,20.40
2019-06-10T09:34:04.005Z,20.46
2019-06-10T09:35:03.410Z,20.53
2019-06-10T09:36:03.280Z,20.49
2019-06-10T09:37:03.522Z,20.54
2019-06-10T09:38:03.533Z,20.51
2019-06-10T09:39:03.939Z,20.53
2019-06-10T09:40:03.422Z,20.51
2019-06-10T09:41:05.255Z,20.50
2019-06-10T09:42:05.483Z,20.49
2019-06-10T09:43:02.512Z,20.53
2019-06-10T09:44:03.034Z,20.50
2019-06-10T09:45:02.598Z,20.56
2019-06-10T09:46:03.251Z,20.65
2019-06-10T09:47:03.262Z,20.68
2019-06-10T09:48:03.879Z,20.54
2019-06-10T09:49:02.139Z,20.53
2019-06-10T09:50:03.048Z,20.54
2019-06-10T09:51:02.456Z,20.61
2019-06-10T09:52:03.121Z,20.64
2019-06-10T09:53:00.331Z,20.64
2019-06-10T09:54:03.630Z,20.69
2019-06-10T09:55:02.547Z,20.68
2019-06-10T09:55:59.949Z,20.64
2019-06-10T09:57:02.266Z,20.71
2019-06-10T09:58:00.123Z,20.69
2019-06-10T09:58:59.873Z,20.69
2019-06-10T09:59:59.645Z,20.74
2019-06-10T10:01:02.477Z,20.87
2019-06-10T10:02:02.971Z,20.93
2019-06-10T10:02:59.582Z,20.89
2019-06-10T10:04:00.608Z,20.94
2019-06-10T10:04:59.493Z,20.89
2019-06-10T10:06:10.121Z,20.94
2019-06-10T10:06:59.137Z,20.90
2019-06-10T10:07:59.208Z,20.96
2019-06-10T10:08:58.994Z,20.96
2019-06-10T10:09:59.118Z,21.06
2019-06-10T10:10:59.310Z,21.04
2019-06-10T10:11:58.818Z,20.91
2019-06-10T10:12:58.701Z,20.98
2019-06-10T10:13:58.840Z,21.01
2019-06-10T10:14:58.561Z,21.01
2019-06-10T10:15:58.536Z,20.96
2019-06-10T10:17:00.507Z,20.96
2019-06-10T10:17:58.454Z,21.05
2019-06-10T10:19:00.693Z,21.01
2019-06-10T10:19:58.266Z,21.14
2019-06-10T10:21:00.267Z,21.09
2019-06-10T10:21:58.655Z,21.05
2019-06-10T10:22:57.983Z,21.16
2019-06-10T10:24:06.859Z,21.23
2019-06-10T10:24:57.836Z,21.38
2019-06-10T10:25:57.836Z,21.38
2019-06-10T10:27:01.623Z,21.51
2019-06-10T10:27:57.820Z,21.56
2019-06-10T10:28:57.548Z,21.72
2019-06-10T10:29:57.582Z,21.76
2019-06-10T10:30:58.203Z,21.94
2019-06-10T10:31:57.977Z,22.00
2019-06-10T10:32:57.259Z,22.15
2019-06-10T10:33:57.234Z,22.20
2019-06-10T10:34:57.114Z,22.44
2019-06-10T10:35:57.148Z,22.52
2019-06-10T10:36:57.406Z,22.63
2019-06-10T10:37:56.963Z,22.69
2019-06-10T10:38:56.823Z,22.79
2019-06-10T10:39:56.874Z,22.89
2019-06-10T10:40:59.196Z,22.93
2019-06-10T10:41:57.378Z,22.96
2019-06-10T10:43:10.189Z,22.87
2019-06-10T10:43:58.494Z,22.72
2019-06-10T10:44:59.125Z,22.71
2019-06-10T10:46:00.145Z,22.86
2019-06-10T10:46:56.259Z,22.92
2019-06-10T10:47:57.510Z,22.99
2019-06-10T10:48:56.631Z,23.07
2019-06-10T10:49:57.099Z,23.15
2019-06-10T10:50:56.248Z,23.20
2019-06-10T10:51:56.031Z,23.15
2019-06-10T10:52:55.831Z,23.26
2019-06-10T10:54:19.048Z,23.45
2019-06-10T10:54:55.705Z,23.55
2019-06-10T10:55:55.750Z,23.55
2019-06-10T10:56:59.059Z,23.72
2019-06-10T10:57:55.888Z,23.72
2019-06-10T10:58:58.220Z,23.71
2019-06-10T10:59:56.205Z,23.90
2019-06-10T11:00:57.818Z,24.08
2019-06-10T11:01:55.283Z,24.19
2019-06-10T11:02:55.129Z,24.26
2019-06-10T11:03:58.877Z,24.41
2019-06-10T11:04:56.844Z,24.57
2019-06-10T11:06:00.223Z,24.76
2019-06-10T11:06:57.230Z,24.67
2019-06-10T11:07:56.725Z,24.76
2019-06-10T11:08:55.840Z,24.75
2019-06-10T11:09:56.723Z,24.75
2019-06-10T11:10:59.310Z,24.83
2019-06-10T11:11:55.011Z,24.98
2019-06-10T11:12:55.429Z,25.05
2019-06-10T11:13:56.814Z,25.16
2019-06-10T11:14:56.878Z,25.22
2019-06-10T11:15:56.388Z,25.19
2019-06-10T11:16:56.894Z,25.19
2019-06-10T11:17:56.369Z,25.27
2019-06-10T11:18:56.243Z,25.09
2019-06-10T11:19:55.782Z,25.13
2019-06-10T11:20:54.098Z,25.09
2019-06-10T11:21:53.890Z,25.25
2019-06-10T11:22:53.723Z,25.23
2019-06-10T11:23:58.835Z,25.30
2019-06-10T11:24:55.849Z,25.25
2019-06-10T11:25:56.944Z,25.25
2019-06-10T11:26:56.369Z,25.19
2019-06-10T11:27:55.745Z,25.37
2019-06-10T11:28:55.631Z,25.25
2019-06-10T11:29:56.404Z,25.32
2019-06-10T11:30:56.746Z,25.28
2019-06-10T11:31:55.677Z,25.35
2019-06-10T11:32:55.879Z,25.46
2019-06-10T11:33:55.955Z,25.42
2019-06-10T11:34:56.725Z,25.46
2019-06-10T11:35:55.135Z,25.56
2019-06-10T11:36:55.047Z,25.72
2019-06-10T11:37:54.957Z,25.90
2019-06-10T11:38:55.139Z,25.86
2019-06-10T11:39:52.677Z,25.97
2019-06-10T11:40:56.383Z,26.08
2019-06-10T11:41:53.276Z,26.15
2019-06-10T11:42:56.379Z,26.21
2019-06-10T11:43:55.041Z,26.12
2019-06-10T11:44:55.428Z,26.18
2019-06-10T11:45:57.625Z,26.16
2019-06-10T11:46:54.850Z,26.09
2019-06-10T11:47:54.892Z,26.18
2019-06-10T11:48:55.644Z,26.04
2019-06-10T11:49:53.805Z,26.04
2019-06-10T11:50:54.738Z,25.97
2019-06-10T11:51:53.590Z,25.82
2019-06-10T11:52:55.489Z,25.70
2019-06-10T11:53:54.345Z,25.42
2019-06-10T11:55:03.501Z,25.00
2019-06-10T11:55:51.717Z,24.86
2019-06-10T11:56:54.361Z,24.71
2019-06-10T11:57:54.923Z,24.59
2019-06-10T11:58:55.171Z,24.52
2019-06-10T11:59:53.233Z,24.48
2019-06-10T12:00:56.739Z,24.45
2019-06-10T12:01:52.584Z,24.45
2019-06-10T12:02:53.327Z,24.44
2019-06-10T12:03:53.470Z,24.27
2019-06-10T12:04:53.211Z,24.26
2019-06-10T12:05:53.776Z,24.23
2019-06-10T12:06:51.228Z,24.32
2019-06-10T12:07:51.803Z,24.45
2019-06-10T12:08:53.597Z,24.64
2019-06-10T12:09:51.574Z,24.75
2019-06-10T12:10:51.938Z,24.78
2019-06-10T12:11:51.577Z,24.80
2019-06-10T12:12:54.059Z,24.80
2019-06-10T12:13:53.740Z,24.98
2019-06-10T12:14:54.785Z,25.05
2019-06-10T12:16:32.751Z,25.05
2019-06-10T12:17:17.639Z,24.97
2019-06-10T12:17:52.635Z,24.93
2019-06-10T12:18:51.035Z,24.88
2019-06-10T12:19:53.265Z,25.01
2019-06-10T12:20:49.743Z,25.09
2019-06-10T12:21:50.452Z,25.15
2019-06-10T12:22:49.640Z,25.20
2019-06-10T12:23:49.755Z,25.40
2019-06-10T12:24:50.328Z,25.42
2019-06-10T12:25:49.741Z,25.56
2019-06-10T12:26:49.837Z,25.64
2019-06-10T12:27:51.224Z,25.70
2019-06-10T12:28:50.714Z,25.67
2019-06-10T12:29:50.034Z,25.72
2019-06-10T12:30:50.368Z,25.55
2019-06-10T12:31:50.617Z,25.53
2019-06-10T12:32:48.915Z,25.67
2019-06-10T12:33:48.956Z,25.70
2019-06-10T12:34:48.779Z,25.84
2019-06-10T12:35:48.764Z,25.75
2019-06-10T12:36:48.662Z,25.82
2019-06-10T12:37:48.638Z,25.86
2019-06-10T12:38:48.504Z,25.83
2019-06-10T12:39:48.595Z,25.86
2019-06-10T12:40:48.528Z,25.78
2019-06-10T12:41:48.399Z,25.94
2019-06-10T12:42:48.233Z,25.94
2019-06-10T12:43:48.308Z,25.99
2019-06-10T12:44:48.499Z,25.97
2019-06-10T12:45:48.117Z,26.05
2019-06-10T12:46:47.965Z,26.02
2019-06-10T12:47:48.027Z,25.90
2019-06-10T12:48:47.836Z,25.93
2019-06-10T12:49:47.830Z,25.93
2019-06-10T12:50:47.878Z,25.92
2019-06-10T12:51:47.749Z,25.79